Time;durP1;ratioP1;P1;durP2;ratioP2;P2;SDS_P1;SDS_P2;PMS_P1;PMS_P2;Temp;Humidity;BMP_temperature;BMP_pressure;BME280_temperature;BME280_humidity;BME280_pressure;Samples;Min_cycle;Max_cycle;Signal;HPM_P1;HPM_P2
2022/09/09 13:05:29;;;;;;;64.60;36.90;;;;;;;14.18;82.10;100062.31;102686;1309;637235;-76
2022/09/09 13:08:06;;;;;;;62.90;35.90;;;;;;;14.18;82.19;100061.66;105794;1277;138622;-77
2022/09/09 13:10:46;;;;;;;62.30;36.00;;;;;;;14.20;82.05;100058.56;105974;1276;94475;-75
2022/09/09 13:13:37;;;;;;;64.60;36.60;;;;;;;14.25;82.32;100055.36;105815;1276;138598;-76
2022/09/09 13:16:26;;;;;;;58.50;35.30;;;;;;;14.30;82.08;100051.58;105980;1276;108966;-77
2022/09/09 13:18:59;;;;;;;61.10;35.10;;;;;;;14.35;82.13;100054.66;105030;1273;1314850;-75
2022/09/09 13:21:38;;;;;;;60.80;35.50;;;;;;;14.37;81.84;100057.89;106058;1273;139092;-75
2022/09/09 13:24:29;;;;;;;64.80;35.80;;;;;;;14.38;81.96;100051.56;106167;1273;94199;-77
2022/09/09 13:27:03;;;;;;;60.70;35.20;;;;;;;14.36;81.67;100045.01;106627;1273;138208;-74
2022/09/09 13:29:35;;;;;;;57.10;32.80;;;;;;;14.35;81.80;100045.38;107375;1273;108270;-74
2022/09/09 13:32:16;;;;;;;67.10;37.30;;;;;;;14.37;81.91;100044.08;105847;1273;139937;-74
2022/09/09 13:34:55;;;;;;;66.60;37.00;;;;;;;14.42;81.90;100045.95;106085;1273;95212;-75
2022/09/09 13:37:34;;;;;;;61.40;35.30;;;;;;;14.44;81.89;100049.33;105913;1273;138275;-75
2022/09/09 13:40:17;;;;;;;63.20;35.70;;;;;;;14.46;81.69;100048.20;106033;1274;109270;-77
2022/09/09 13:42:52;;;;;;;61.10;35.50;;;;;;;14.44;81.66;100046.34;105997;1273;109062;-72
2022/09/09 13:45:27;;;;;;;59.60;35.90;;;;;;;14.41;81.70;100044.92;105927;1273;139118;-71
2022/09/09 13:48:09;;;;;;;67.50;36.10;;;;;;;14.37;81.62;100049.49;105922;1276;94915;-71
2022/09/09 13:50:41;;;;;;;69.30;35.70;;;;;;;14.33;81.79;100047.77;105887;1273;138097;-68
2022/09/09 13:53:13;;;;;;;66.20;36.30;;;;;;;14.25;81.91;100052.91;106111;1273;111034;-68
2022/09/09 13:55:45;;;;;;;64.00;36.40;;;;;;;14.19;81.97;100053.70;106388;1273;140046;-68
2022/09/09 13:58:24;;;;;;;66.80;36.60;;;;;;;14.16;82.28;100056.52;107628;1273;107579;-68
2022/09/09 14:00:57;;;;;;;69.70;37.80;;;;;;;14.13;82.28;100057.31;107596;1273;94021;-69
2022/09/09 14:03:30;;;;;;;66.30;36.00;;;;;;;14.13;82.46;100058.75;107504;1273;140175;-69
2022/09/09 14:06:01;;;;;;;66.40;37.10;;;;;;;14.13;82.56;100057.18;107601;1273;110128;-70
2022/09/09 14:08:36;;;;;;;66.50;36.20;;;;;;;14.13;82.66;100057.70;107672;1271;138630;-69
2022/09/09 14:11:13;;;;;;;65.10;35.70;;;;;;;14.14;82.76;100058.35;107832;1270;108817;-68
2022/09/09 14:13:45;;;;;;;67.70;37.90;;;;;;;14.14;82.70;100059.04;106943;1268;230680;-68
2022/09/09 14:16:17;;;;;;;68.90;38.00;;;;;;;14.15;82.77;100064.92;106248;1273;95152;-67
2022/09/09 14:18:50;;;;;;;71.30;35.90;;;;;;;14.15;82.77;100063.73;106289;1270;109839;-68
2022/09/09 14:21:22;;;;;;;69.30;35.00;;;;;;;14.13;82.80;100066.94;107544;1270;138472;-69
2022/09/09 14:23:55;;;;;;;60.40;33.70;;;;;;;14.12;82.85;100065.77;106295;1270;108761;-68
2022/09/09 14:26:28;;;;;;;64.30;33.20;;;;;;;14.11;82.95;100068.30;106147;1271;138839;-67
2022/09/09 14:29:01;;;;;;;63.20;33.40;;;;;;;14.07;83.00;100073.06;106286;1270;95239;-68
2022/09/09 14:31:34;;;;;;;65.80;34.10;;;;;;;14.05;83.02;100075.08;106172;1270;138637;-66
2022/09/09 14:34:06;;;;;;;64.10;33.50;;;;;;;14.07;83.28;100079.69;106294;1270;108890;-69
2022/09/09 14:36:38;;;;;;;66.90;33.20;;;;;;;14.08;83.21;100075.44;106238;1271;108901;-67
2022/09/09 14:39:10;;;;;;;58.50;32.10;;;;;;;14.10;83.42;100065.88;106140;1270;138476;-69
2022/09/09 14:41:42;;;;;;;61.80;33.00;;;;;;;14.12;83.32;100067.90;106214;1270;95141;-69
2022/09/09 14:44:15;;;;;;;63.00;34.30;;;;;;;14.12;83.24;100068.40;106134;1270;138188;-69
2022/09/09 14:46:50;;;;;;;61.20;33.30;;;;;;;14.14;83.41;100071.30;106261;1270;108972;-69
2022/09/09 14:49:22;;;;;;;58.80;33.00;;;;;;;14.15;83.39;100065.46;106193;1270;138327;-68
2022/09/09 14:51:54;;;;;;;61.80;33.20;;;;;;;14.18;83.40;100067.08;106262;1270;95220;-67
2022/09/09 14:54:26;;;;;;;63.70;31.90;;;;;;;14.21;83.43;100074.61;106255;1270;95134;-67
2022/09/09 14:56:59;;;;;;;57.90;31.20;;;;;;;14.22;83.24;100078.44;106844;1271;138403;-68
2022/09/09 14:59:31;;;;;;;56.10;29.20;;;;;;;14.23;83.35;100076.81;106284;1270;108898;-67
2022/09/09 15:02:04;;;;;;;57.00;31.60;;;;;;;14.21;83.18;100077.92;106122;1270;138485;-68
2022/09/09 15:04:36;;;;;;;58.80;31.20;;;;;;;14.21;83.28;100078.83;106267;1270;95165;-68
2022/09/09 15:07:08;;;;;;;59.70;31.20;;;;;;;14.19;83.25;100078.23;106293;1270;95214;-69
2022/09/09 15:09:40;;;;;;;55.10;30.50;;;;;;;14.20;83.29;100073.98;106305;1270;109374;-68
2022/09/09 15:12:13;;;;;;;61.80;31.70;;;;;;;14.22;83.29;100072.13;106287;1270;108909;-69
2022/09/09 15:14:46;;;;;;;52.50;29.60;;;;;;;14.22;83.30;100066.88;107713;1270;138724;-69
2022/09/09 15:17:18;;;;;;;59.70;30.80;;;;;;;14.23;83.25;100071.55;107797;1270;93333;-69
2022/09/09 15:19:50;;;;;;;57.00;31.20;;;;;;;14.24;83.27;100067.13;107715;1270;138942;-69
2022/09/09 15:22:24;;;;;;;55.90;30.80;;;;;;;14.28;83.27;100069.55;107803;1271;108487;-69
2022/09/09 15:24:55;;;;;;;54.20;31.50;;;;;;;14.32;83.43;100069.83;107826;1270;108466;-68
2022/09/09 15:27:28;;;;;;;57.20;32.10;;;;;;;14.34;83.27;100072.71;107758;1270;139082;-69
2022/09/09 15:30:00;;;;;;;60.20;34.20;;;;;;;14.36;83.14;100070.36;107782;1270;93266;-68
2022/09/09 15:32:35;;;;;;;59.00;32.80;;;;;;;14.40;82.95;100071.04;106747;1270;138090;-68
2022/09/09 15:35:08;;;;;;;62.20;32.60;;;;;;;14.43;83.01;100074.71;106263;1270;109801;-68
2022/09/09 15:37:40;;;;;;;57.20;31.30;;;;;;;14.47;82.95;100082.06;107701;1270;138462;-68
2022/09/09 15:40:16;;;;;;;60.30;32.20;;;;;;;14.49;82.69;100084.06;106835;1270;108732;-68
2022/09/09 15:42:48;;;;;;;59.00;33.80;;;;;;;14.52;82.71;100080.77;106279;1271;95158;-69
2022/09/09 15:45:21;;;;;;;62.40;33.00;;;;;;;14.55;82.66;100078.73;106208;1270;138423;-68
2022/09/09 15:47:53;;;;;;;58.80;33.20;;;;;;;14.55;82.38;100078.02;106316;1270;109668;-68
2022/09/09 15:50:25;;;;;;;57.50;33.50;;;;;;;14.55;82.27;100080.83;106202;1270;138437;-68
2022/09/09 15:52:58;;;;;;;67.40;41.10;;;;;;;14.53;82.33;100077.05;106274;1270;108920;-68
2022/09/09 15:55:29;;;;;;;55.40;33.30;;;;;;;14.53;82.29;100072.66;106214;1270;138626;-67
2022/09/09 15:58:01;;;;;;;60.90;35.10;;;;;;;14.51;82.01;100072.58;106313;1270;95163;-68
2022/09/09 16:00:34;;;;;;;56.60;34.70;;;;;;;14.51;82.35;100071.38;106303;1270;109770;-68
2022/09/09 16:03:06;;;;;;;54.80;33.80;;;;;;;14.51;82.32;100066.97;106147;1272;139074;-69
2022/09/09 16:05:39;;;;;;;55.00;32.20;;;;;;;14.50;82.29;100060.91;106291;1270;107434;-67
2022/09/09 16:08:11;;;;;;;57.00;34.00;;;;;;;14.46;82.21;100063.94;106185;1270;138827;-68
2022/09/09 16:10:43;;;;;;;55.50;33.10;;;;;;;14.44;82.32;100068.05;106198;1270;95239;-68
2022/09/09 16:13:17;;;;;;;55.20;34.10;;;;;;;14.44;82.29;100075.76;106226;1270;138604;-68
2022/09/09 16:15:56;;;;;;;58.70;34.10;;;;;;;14.44;82.49;100075.95;106267;1270;108906;-68
2022/09/09 16:18:33;;;;;;;53.30;32.60;;;;;;;14.42;82.37;100074.09;106750;1271;109091;-68
2022/09/09 16:21:07;;;;;;;54.70;33.40;;;;;;;14.40;82.43;100069.62;105995;1270;138421;-67
2022/09/09 16:23:39;;;;;;;50.20;31.20;;;;;;;14.38;82.39;100069.58;107311;1270;94220;-67
2022/09/09 16:26:14;;;;;;;54.10;32.70;;;;;;;14.32;82.21;100070.17;106173;1270;138199;-68
2022/09/09 16:28:47;;;;;;;50.50;31.80;;;;;;;14.27;82.37;100069.94;106196;1269;109717;-70
2022/09/09 16:31:22;;;;;;;51.70;31.90;;;;;;;14.23;82.51;100068.21;106126;1270;139172;-70
2022/09/09 16:33:54;;;;;;;53.10;32.40;;;;;;;14.18;82.62;100067.05;106148;1270;95233;-70
2022/09/09 16:36:29;;;;;;;53.80;31.70;;;;;;;14.16;82.61;100068.40;106238;1270;95149;-70
2022/09/09 16:39:04;;;;;;;55.60;31.60;;;;;;;14.14;82.88;100070.40;107642;1270;139009;-69
2022/09/09 16:41:36;;;;;;;53.00;32.50;;;;;;;14.09;82.92;100067.72;107494;1270;109073;-68
2022/09/09 16:44:11;;;;;;;53.70;31.00;;;;;;;14.05;82.92;100066.48;106149;1270;138485;-69
2022/09/09 16:46:48;;;;;;;55.30;31.40;;;;;;;14.01;83.23;100063.21;106172;1271;95344;-68
2022/09/09 16:49:21;;;;;;;58.50;32.50;;;;;;;13.97;83.26;100057.77;106106;1270;138945;-69
2022/09/09 16:51:53;;;;;;;54.90;32.80;;;;;;;13.93;83.32;100064.11;106383;1270;109740;-69
2022/09/09 16:54:26;;;;;;;51.10;32.60;;;;;;;13.90;83.52;100071.09;106199;1270;108847;-68
2022/09/09 16:56:59;;;;;;;55.60;32.80;;;;;;;13.87;83.44;100069.63;106809;1270;138418;-69
2022/09/09 16:59:32;;;;;;;52.10;32.50;;;;;;;13.88;83.67;100071.01;106149;1271;95220;-69
2022/09/09 17:02:04;;;;;;;54.70;32.00;;;;;;;13.87;83.68;100065.45;106498;1270;139104;-70
2022/09/09 17:04:37;;;;;;;49.00;32.20;;;;;;;13.86;83.71;100063.04;106219;1270;110018;-69
2022/09/09 17:07:09;;;;;;;52.60;32.70;;;;;;;13.86;83.86;100067.09;106274;1271;108972;-69
2022/09/09 17:09:42;;;;;;;52.40;31.60;;;;;;;13.86;83.73;100068.83;107627;1270;109145;-70
2022/09/09 17:12:14;;;;;;;49.00;30.70;;;;;;;13.84;84.05;100073.81;106200;1270;95548;-69
2022/09/09 17:14:46;;;;;;;55.90;34.60;;;;;;;13.80;83.94;100073.81;106089;1270;138345;-69
2022/09/09 17:17:18;;;;;;;47.10;29.60;;;;;;;13.77;84.10;100079.23;106169;1270;109499;-69
2022/09/09 17:20:03;;;;;;;56.80;30.70;;;;;;;13.73;84.02;100086.04;106104;1271;138469;-69
2022/09/09 17:22:35;;;;;;;56.90;31.60;;;;;;;13.70;84.20;100089.88;106113;1270;108724;-67
2022/09/09 17:25:09;;;;;;;57.40;31.80;;;;;;;13.68;84.29;100089.81;106232;1270;96565;-68
2022/09/09 17:27:41;;;;;;;52.00;29.30;;;;;;;13.65;84.48;100091.51;107767;1270;94665;-69
2022/09/09 17:30:16;;;;;;;47.00;28.60;;;;;;;13.63;84.32;100096.67;107813;1270;111238;-68
2022/09/09 17:32:48;;;;;;;45.10;27.70;;;;;;;13.59;84.51;100095.64;106776;1270;140267;-70
2022/09/09 17:35:20;;;;;;;51.10;29.80;;;;;;;13.57;84.54;100096.94;106219;1270;108766;-68
2022/09/09 17:37:54;;;;;;;54.10;29.60;;;;;;;13.54;84.77;100097.41;106121;1270;139904;-69
2022/09/09 17:40:26;;;;;;;47.60;29.80;;;;;;;13.51;84.72;100099.67;106207;1270;96504;-69
2022/09/09 17:43:00;;;;;;;53.30;30.60;;;;;;;13.51;84.71;100099.34;106235;1270;111760;-69
2022/09/09 17:45:33;;;;;;;46.30;30.00;;;;;;;13.52;84.84;100103.30;107632;1270;138620;-69
2022/09/09 17:48:06;;;;;;;47.50;29.70;;;;;;;13.52;84.87;100108.34;107578;1270;108900;-68
2022/09/09 17:50:40;;;;;;;48.00;29.90;;;;;;;13.53;84.80;100113.91;106139;1270;138979;-68
2022/09/09 17:53:12;;;;;;;54.30;30.80;;;;;;;13.51;84.90;100111.53;106253;1270;96568;-68
2022/09/09 17:55:44;;;;;;;49.50;30.10;;;;;;;13.49;84.89;100110.41;106168;1270;138708;-69
2022/09/09 17:58:23;;;;;;;46.20;29.30;;;;;;;13.47;85.03;100105.30;106231;1270;108989;-68
2022/09/09 18:00:55;;;;;;;54.00;31.40;;;;;;;13.45;85.01;100107.27;107752;1270;107710;-69
2022/09/09 18:03:27;;;;;;;50.20;29.70;;;;;;;13.44;85.25;100112.92;107621;1269;138446;-70
2022/09/09 18:06:04;;;;;;;48.10;28.60;;;;;;;13.42;85.25;100118.09;107787;1270;95471;-69
2022/09/09 18:08:37;;;;;;;41.90;26.20;;;;;;;13.43;85.05;100125.38;107637;1271;139447;-68
2022/09/09 18:11:09;;;;;;;43.80;26.90;;;;;;;13.42;85.24;100129.93;107815;1270;108875;-67
2022/09/09 18:13:41;;;;;;;44.90;27.00;;;;;;;13.43;85.20;100130.06;107732;1270;139704;-69
2022/09/09 18:16:13;;;;;;;44.60;27.80;;;;;;;13.43;85.26;100132.87;107822;1270;94831;-69
2022/09/09 18:18:45;;;;;;;41.20;26.20;;;;;;;13.44;85.23;100136.31;107765;1271;94861;-67
2022/09/09 18:21:19;;;;;;;46.80;29.20;;;;;;;13.44;85.21;100131.23;107539;1270;138557;-69
2022/09/09 18:23:51;;;;;;;40.30;26.40;;;;;;;13.46;85.28;100130.83;106430;1271;108809;-67
2022/09/09 18:26:25;;;;;;;47.80;27.00;;;;;;;13.45;85.34;100134.36;107647;1271;139531;-66
2022/09/09 18:29:00;;;;;;;45.30;25.80;;;;;;;13.42;85.15;100136.58;107782;1270;94675;-67
2022/09/09 18:31:32;;;;;;;44.20;25.00;;;;;;;13.39;85.22;100136.21;106284;1271;139744;-67
2022/09/09 18:34:05;;;;;;;41.90;24.50;;;;;;;13.39;85.15;100132.39;106526;1271;111295;-68
2022/09/09 18:36:41;;;;;;;40.90;24.60;;;;;;;13.39;85.21;100133.42;106136;1270;109017;-68
2022/09/09 18:39:14;;;;;;;49.60;27.30;;;;;;;13.39;85.23;100139.88;106131;1270;139095;-67
2022/09/09 18:41:50;;;;;;;40.00;25.50;;;;;;;13.39;85.27;100144.80;106416;1271;96585;-67
2022/09/09 18:44:24;;;;;;;43.70;26.70;;;;;;;13.36;85.30;100142.64;106107;1271;138450;-67
2022/09/09 18:46:57;;;;;;;40.90;25.70;;;;;;;13.35;85.39;100150.91;107761;1271;111070;-68
2022/09/09 18:49:29;;;;;;;40.90;25.90;;;;;;;13.33;85.41;100150.29;107745;1271;138850;-68
2022/09/09 18:52:02;;;;;;;45.90;27.00;;;;;;;13.33;85.35;100151.86;107805;1270;107403;-67
2022/09/09 18:54:34;;;;;;;42.20;25.60;;;;;;;13.33;85.49;100151.52;107784;1270;94494;-67
2022/09/09 18:57:06;;;;;;;42.00;25.70;;;;;;;13.30;85.33;100152.34;106995;1271;138468;-66
2022/09/09 18:59:38;;;;;;;38.90;25.30;;;;;;;13.31;85.28;100154.73;107638;1270;111178;-67
2022/09/09 19:02:11;;;;;;;38.70;23.90;;;;;;;13.31;85.33;100145.98;107712;1270;140719;-67
2022/09/09 19:04:43;;;;;;;39.60;23.70;;;;;;;13.33;85.39;100141.89;107453;1270;107646;-69
2022/09/09 19:07:16;;;;;;;38.30;24.70;;;;;;;13.33;85.26;100142.59;106937;1271;138764;-66
2022/09/09 19:09:48;;;;;;;39.00;25.20;;;;;;;13.35;85.13;100144.46;106244;1271;96475;-67
2022/09/09 19:12:20;;;;;;;37.50;25.60;;;;;;;13.36;84.97;100145.46;106264;1270;111172;-67
2022/09/09 19:14:52;;;;;;;38.20;25.80;;;;;;;13.38;85.30;100144.13;106123;1271;138751;-66
2022/09/09 19:17:26;;;;;;;40.60;26.10;;;;;;;13.39;85.11;100139.68;106195;1271;108845;-66
2022/09/09 19:19:58;;;;;;;33.90;23.10;;;;;;;13.39;85.01;100143.52;106096;1271;139171;-68
2022/09/09 19:22:30;;;;;;;36.80;24.40;;;;;;;13.37;84.86;100147.47;106232;1270;96479;-68
2022/09/09 19:25:03;;;;;;;36.40;23.80;;;;;;;13.37;84.74;100148.55;106237;1271;110841;-68
2022/09/09 19:27:36;;;;;;;37.30;23.50;;;;;;;13.36;84.91;100150.83;106133;1270;139508;-68
2022/09/09 19:30:10;;;;;;;34.80;24.50;;;;;;;13.36;84.89;100149.63;107833;1270;107850;-66
2022/09/09 19:32:42;;;;;;;34.20;24.30;;;;;;;13.35;84.84;100152.63;107721;1270;138704;-66
2022/09/09 19:35:24;;;;;;;43.20;25.50;;;;;;;13.37;84.85;100146.95;107845;1270;94676;-66
2022/09/09 19:37:57;;;;;;;38.70;24.90;;;;;;;13.37;85.06;100139.61;107432;1270;138440;-67
2022/09/09 19:40:29;;;;;;;35.50;25.70;;;;;;;13.37;84.83;100134.71;106263;1271;108976;-66
2022/09/09 19:43:01;;;;;;;35.70;24.40;;;;;;;13.38;84.90;100130.65;106265;1271;108518;-66
2022/09/09 19:45:34;;;;;;;38.50;25.10;;;;;;;13.38;84.75;100133.61;106116;1271;138468;-66
2022/09/09 19:48:06;;;;;;;39.40;24.70;;;;;;;13.38;84.74;100135.71;106248;1271;96473;-66
2022/09/09 19:50:38;;;;;;;34.80;24.50;;;;;;;13.37;84.75;100141.37;106186;1271;139557;-66
2022/09/09 19:53:10;;;;;;;39.20;25.70;;;;;;;13.34;84.72;100136.64;106261;1271;109300;-66
2022/09/09 19:55:42;;;;;;;40.00;26.30;;;;;;;13.33;84.78;100132.16;106102;1271;138892;-66
2022/09/09 19:58:14;;;;;;;40.90;27.20;;;;;;;13.29;84.91;100127.06;107822;1271;94728;-66
2022/09/09 20:00:46;;;;;;;39.70;25.80;;;;;;;13.27;84.93;100128.86;107835;1271;94689;-66
2022/09/09 20:03:18;;;;;;;40.30;25.80;;;;;;;13.26;85.03;100127.36;107725;1271;139156;-66
2022/09/09 20:05:52;;;;;;;36.20;24.90;;;;;;;13.22;85.11;100135.38;107804;1271;109110;-66
2022/09/09 20:08:26;;;;;;;38.70;25.10;;;;;;;13.20;85.03;100134.60;107708;1271;138557;-67
2022/09/09 20:10:58;;;;;;;38.60;25.90;;;;;;;13.17;85.15;100141.71;107766;1271;94741;-66
2022/09/09 20:13:31;;;;;;;36.30;25.60;;;;;;;13.16;85.43;100139.51;107743;1270;139889;-67
2022/09/09 20:16:05;;;;;;;42.40;25.30;;;;;;;13.12;85.49;100144.54;107807;1271;111082;-67
2022/09/09 20:18:38;;;;;;;43.00;26.90;;;;;;;13.07;85.52;100143.36;107823;1271;108815;-67
2022/09/09 20:21:14;;;;;;;44.60;26.60;;;;;;;13.04;85.63;100140.70;107590;1270;139133;-66
2022/09/09 20:23:47;;;;;;;39.90;25.50;;;;;;;13.02;85.66;100138.52;106451;1271;96674;-67
2022/09/09 20:26:21;;;;;;;39.30;26.70;;;;;;;13.02;85.70;100142.19;106606;1271;139503;-66
2022/09/09 20:28:55;;;;;;;40.20;24.90;;;;;;;13.03;85.94;100146.68;107835;1271;111195;-67
2022/09/09 20:31:29;;;;;;;35.90;24.80;;;;;;;13.02;85.93;100146.21;106825;1271;138854;-67
2022/09/09 20:34:01;;;;;;;41.20;26.40;;;;;;;12.96;85.77;100144.21;106519;1271;107536;-67
2022/09/09 20:36:35;;;;;;;41.20;25.80;;;;;;;12.93;86.04;100145.40;106540;1271;96331;-67
2022/09/09 20:39:09;;;;;;;39.10;26.90;;;;;;;12.90;86.04;100142.71;107633;1270;139588;-67
2022/09/09 20:41:43;;;;;;;36.90;25.60;;;;;;;12.90;86.30;100140.59;106340;1271;111527;-66
2022/09/09 20:44:18;;;;;;;36.10;24.60;;;;;;;12.90;86.25;100139.19;107295;1271;139279;-67
2022/09/09 20:46:53;;;;;;;33.80;24.90;;;;;;;12.91;86.33;100143.70;107812;1271;108895;-66
2022/09/09 20:49:24;;;;;;;37.40;25.00;;;;;;;12.92;86.29;100150.65;107704;1270;138971;-66
2022/09/09 20:51:56;;;;;;;31.70;22.80;;;;;;;12.91;86.27;100147.20;107815;1271;94848;-67
2022/09/09 20:54:30;;;;;;;35.90;24.30;;;;;;;12.91;86.17;100146.84;107777;1271;111174;-66
2022/09/09 20:57:01;;;;;;;34.10;24.10;;;;;;;12.91;86.23;100147.36;106548;1271;139813;-66
2022/09/09 20:59:34;;;;;;;30.10;22.20;;;;;;;12.92;86.14;100150.82;106283;1271;108301;-66
2022/09/09 21:02:06;;;;;;;35.50;24.00;;;;;;;12.91;86.04;100151.39;106107;1270;138803;-66
2022/09/09 21:04:38;;;;;;;33.50;25.20;;;;;;;12.91;86.13;100152.59;106267;1271;96504;-67
2022/09/09 21:07:11;;;;;;;31.90;23.20;;;;;;;12.91;86.19;100149.82;106295;1271;111111;-67
2022/09/09 21:09:43;;;;;;;32.80;23.80;;;;;;;12.89;86.21;100153.37;106732;1271;109053;-67
2022/09/09 21:12:15;;;;;;;32.70;23.40;;;;;;;12.88;86.29;100149.25;106274;1271;108213;-67
2022/09/09 21:14:47;;;;;;;33.00;23.10;;;;;;;12.87;86.35;100155.56;106201;1271;138499;-66
2022/09/09 21:17:20;;;;;;;31.20;22.80;;;;;;;12.86;86.38;100162.09;106227;1270;96594;-67
2022/09/09 21:19:52;;;;;;;33.50;23.00;;;;;;;12.84;86.39;100159.38;106133;1271;141737;-67
2022/09/09 21:22:28;;;;;;;36.80;24.00;;;;;;;12.83;86.51;100156.98;106221;1270;107836;-67
2022/09/09 21:25:00;;;;;;;37.70;22.70;;;;;;;12.83;86.62;100159.27;106229;1270;108365;-67
2022/09/09 21:27:32;;;;;;;34.20;22.80;;;;;;;12.81;86.62;100157.93;106103;1270;138389;-67
2022/09/09 21:30:04;;;;;;;31.90;22.60;;;;;;;12.83;86.65;100165.89;106165;1271;96459;-67
2022/09/09 21:32:36;;;;;;;32.50;22.10;;;;;;;12.85;86.67;100169.98;107741;1270;138941;-67
2022/09/09 21:35:10;;;;;;;32.40;22.80;;;;;;;12.88;86.86;100164.62;107829;1270;107648;-68
2022/09/09 21:37:42;;;;;;;27.30;18.90;;;;;;;12.89;86.80;100166.48;107592;1271;139124;-67
2022/09/09 21:40:15;;;;;;;26.30;18.70;;;;;;;12.88;86.49;100165.13;107804;1270;94896;-65
2022/09/09 21:42:47;;;;;;;22.70;16.40;;;;;;;12.88;86.50;100163.91;107845;1270;94416;-65
2022/09/09 21:45:19;;;;;;;20.40;16.30;;;;;;;12.88;86.50;100163.58;107728;1270;139116;-68
2022/09/09 21:47:51;;;;;;;22.20;15.80;;;;;;;12.86;86.33;100152.67;107839;1270;108941;-67
2022/09/09 21:50:23;;;;;;;19.10;15.00;;;;;;;12.86;86.36;100152.48;107700;1270;138668;-68
2022/09/09 21:52:59;;;;;;;20.30;15.80;;;;;;;12.83;86.25;100162.21;107828;1270;94714;-68
2022/09/09 21:55:34;;;;;;;19.60;15.10;;;;;;;12.81;86.31;100156.90;107712;1270;138701;-68
2022/09/09 21:58:07;;;;;;;17.40;13.80;;;;;;;12.80;86.23;100157.83;106480;1270;111463;-68
2022/09/09 22:00:43;;;;;;;17.30;13.90;;;;;;;12.78;86.25;100162.11;106190;1271;109034;-67
2022/09/09 22:03:17;;;;;;;17.40;13.80;;;;;;;12.76;86.27;100161.67;107728;1270;139551;-68
2022/09/09 22:05:48;;;;;;;16.90;13.00;;;;;;;12.76;86.36;100155.56;107440;1270;96499;-67
2022/09/09 22:08:25;;;;;;;17.50;13.50;;;;;;;12.76;86.29;100158.52;106204;1270;138449;-67
2022/09/09 22:10:57;;;;;;;15.30;13.00;;;;;;;12.76;86.38;100157.82;106260;1271;109727;-67
2022/09/09 22:13:29;;;;;;;16.40;12.80;;;;;;;12.76;86.47;100155.90;106776;1270;139502;-67
2022/09/09 22:16:04;;;;;;;18.10;13.80;;;;;;;12.79;86.38;100155.27;106559;1271;108661;-67
2022/09/09 22:18:37;;;;;;;16.80;13.70;;;;;;;12.80;86.49;100152.95;106618;1271;96504;-67
2022/09/09 22:21:12;;;;;;;19.80;14.00;;;;;;;12.80;86.41;100154.84;106197;1271;138438;-68
2022/09/09 22:23:45;;;;;;;18.30;14.10;;;;;;;12.80;86.45;100155.73;107032;1270;111390;-65
2022/09/09 22:26:17;;;;;;;19.60;13.60;;;;;;;12.80;86.49;100149.45;106812;1270;139848;-66
2022/09/09 22:28:49;;;;;;;16.20;13.40;;;;;;;12.80;86.34;100144.23;107826;1270;108867;-66
2022/09/09 22:31:21;;;;;;;17.40;13.80;;;;;;;12.77;86.33;100146.79;107696;1270;138608;-66
2022/09/09 22:33:54;;;;;;;19.90;14.00;;;;;;;12.74;86.37;100147.41;107869;1270;94697;-66
2022/09/09 22:36:26;;;;;;;19.20;14.40;;;;;;;12.71;86.32;100142.81;107836;1270;111097;-66
2022/09/09 22:38:59;;;;;;;18.30;13.50;;;;;;;12.73;86.48;100147.29;107691;1271;139544;-66
2022/09/09 22:41:30;;;;;;;19.90;13.80;;;;;;;12.73;86.46;100149.70;107794;1271;108577;-67
2022/09/09 22:44:03;;;;;;;18.50;13.70;;;;;;;12.73;86.45;100148.50;107659;1270;138524;-66
2022/09/09 22:46:35;;;;;;;17.30;13.90;;;;;;;12.73;86.49;100148.85;107844;1270;94468;-66
2022/09/09 22:49:07;;;;;;;19.50;15.40;;;;;;;12.73;86.43;100151.29;107840;1268;110895;-66
2022/09/09 22:51:39;;;;;;;22.20;15.70;;;;;;;12.72;86.47;100148.36;106460;1270;138312;-66
2022/09/09 22:54:11;;;;;;;19.80;16.10;;;;;;;12.71;86.44;100142.80;107191;1270;108814;-66
2022/09/09 22:56:43;;;;;;;19.60;15.40;;;;;;;12.71;86.49;100142.46;107397;1270;138852;-66
2022/09/09 22:59:15;;;;;;;19.80;15.30;;;;;;;12.71;86.56;100143.67;106738;1270;96486;-66
2022/09/09 23:01:48;;;;;;;19.90;15.60;;;;;;;12.69;86.65;100142.02;107754;1270;139057;-66
2022/09/09 23:04:21;;;;;;;20.60;16.20;;;;;;;12.68;86.61;100138.95;107805;1270;109074;-66
2022/09/09 23:06:53;;;;;;;19.10;15.20;;;;;;;12.68;86.65;100136.13;107804;1270;107210;-66
2022/09/09 23:09:25;;;;;;;20.90;15.50;;;;;;;12.68;86.75;100135.59;107710;1270;139203;-66
2022/09/09 23:11:57;;;;;;;19.40;15.20;;;;;;;12.70;86.63;100136.91;107826;1270;94540;-66
2022/09/09 23:14:32;;;;;;;19.90;15.20;;;;;;;12.71;86.73;100136.52;106423;1270;138414;-66
2022/09/09 23:17:04;;;;;;;16.80;14.10;;;;;;;12.69;86.55;100133.65;106192;1271;107114;-67
2022/09/09 23:19:36;;;;;;;20.90;16.50;;;;;;;12.65;86.69;100129.81;106107;1271;140199;-67
2022/09/09 23:22:08;;;;;;;21.60;17.00;;;;;;;12.62;86.60;100126.13;107786;1270;94448;-67
2022/09/09 23:24:41;;;;;;;19.70;16.20;;;;;;;12.62;86.89;100127.00;106796;1270;96324;-67
2022/09/09 23:27:13;;;;;;;19.40;16.60;;;;;;;12.63;86.94;100124.00;106156;1270;138554;-67
2022/09/09 23:29:47;;;;;;;21.20;17.40;;;;;;;12.61;86.80;100122.34;106191;1271;108408;-67
2022/09/09 23:32:19;;;;;;;23.30;17.20;;;;;;;12.60;86.82;100119.59;106206;1270;142297;-68
2022/09/09 23:34:51;;;;;;;23.60;18.60;;;;;;;12.60;86.87;100120.09;106252;1270;96532;-67
2022/09/09 23:37:23;;;;;;;21.90;18.70;;;;;;;12.61;86.95;100116.42;106139;1270;139805;-67
2022/09/09 23:39:55;;;;;;;23.80;18.40;;;;;;;12.61;87.17;100117.30;106319;1270;110959;-67
2022/09/09 23:42:28;;;;;;;22.90;18.10;;;;;;;12.61;87.32;100119.02;106328;1270;108864;-66
2022/09/09 23:45:00;;;;;;;22.50;17.40;;;;;;;12.62;87.28;100116.86;106229;1270;138636;-67
2022/09/09 23:47:32;;;;;;;22.60;16.10;;;;;;;12.62;87.14;100116.17;106237;1270;96587;-67
2022/09/09 23:50:06;;;;;;;15.10;13.00;;;;;;;12.63;87.21;100112.29;106222;1270;139681;-67
2022/09/09 23:52:41;;;;;;;17.70;13.60;;;;;;;12.61;87.05;100115.00;107816;1270;110926;-67
2022/09/09 23:55:13;;;;;;;17.10;13.40;;;;;;;12.59;86.80;100116.12;106221;1270;107735;-67
2022/09/09 23:57:45;;;;;;;14.20;10.90;;;;;;;12.57;86.67;100118.65;106266;1270;108839;-67
